sensor_id;sensor_type;location;lat;lon;timestamp;temperature;humidity
32107;DHT22;18622;51.998;10.440;2023-02-28T03:46:28;0.20;99.90
32107;DHT22;18622;51.998;10.440;2023-02-28T03:49:07;0.20;99.90
32107;DHT22;18622;51.998;10.440;2023-02-28T03:51:32;0.20;99.90
32107;DHT22;18622;51.998;10.440;2023-02-28T03:54:04;0.20;99.90
32107;DHT22;18622;51.998;10.440;2023-02-28T03:56:34;0.10;99.90
32107;DHT22;18622;51.998;10.440;2023-02-28T03:59:13;0.10;99.90
32107;DHT22;18622;51.998;10.440;2023-02-28T04:01:43;0.00;99.90
32107;DHT22;18622;51.998;10.440;2023-02-28T04:04:11;-0.10;99.90
32107;DHT22;18622;51.998;10.440;2023-02-28T04:06:38;-0.20;99.90
32107;DHT22;18622;51.998;10.440;2023-02-28T04:09:08;-0.20;99.90
32107;DHT22;18622;51.998;10.440;2023-02-28T04:11:41;-0.30;99.90
32107;DHT22;18622;51.998;10.440;2023-02-28T04:14:10;-0.40;99.90
32107;DHT22;18622;51.998;10.440;2023-02-28T04:16:40;-0.40;99.90
32107;DHT22;18622;51.998;10.440;2023-02-28T04:19:08;-0.50;99.90
32107;DHT22;18622;51.998;10.440;2023-02-28T04:21:40;-0.50;99.90
32107;DHT22;18622;51.998;10.440;2023-02-28T04:24:14;-0.60;99.90
32107;DHT22;18622;51.998;10.440;2023-02-28T04:26:45;-0.60;99.90
32107;DHT22;18622;51.998;10.440;2023-02-28T04:29:17;-0.70;99.90
32107;DHT22;18622;51.998;10.440;2023-02-28T04:31:43;-0.70;99.90
32107;DHT22;18622;51.998;10.440;2023-02-28T04:34:11;-0.70;99.90
32107;DHT22;18622;51.998;10.440;2023-02-28T04:36:39;-0.70;99.90
32107;DHT22;18622;51.998;10.440;2023-02-28T04:41:35;-0.50;99.90
32107;DHT22;18622;51.998;10.440;2023-02-28T04:44:03;-0.40;99.90
32107;DHT22;18622;51.998;10.440;2023-02-28T04:46:31;-0.30;99.90
32107;DHT22;18622;51.998;10.440;2023-02-28T04:48:59;-0.20;99.90
32107;DHT22;18622;51.998;10.440;2023-02-28T04:51:27;-0.20;99.90
32107;DHT22;18622;51.998;10.440;2023-02-28T04:53:54;-0.10;99.90
32107;DHT22;18622;51.998;10.440;2023-02-28T04:56:22;-0.10;99.90
32107;DHT22;18622;51.998;10.440;2023-02-28T04:58:50;-0.10;99.90
32107;DHT22;18622;51.998;10.440;2023-02-28T05:01:22;-0.10;99.90
32107;DHT22;18622;51.998;10.440;2023-02-28T05:03:51;-0.10;99.90
32107;DHT22;18622;51.998;10.440;2023-02-28T05:06:19;-0.10;99.90
32107;DHT22;18622;51.998;10.440;2023-02-28T05:08:47;-0.10;99.90
32107;DHT22;18622;51.998;10.440;2023-02-28T05:11:19;-0.10;99.90
32107;DHT22;18622;51.998;10.440;2023-02-28T05:13:47;-0.10;99.90
32107;DHT22;18622;51.998;10.440;2023-02-28T05:16:14;-0.20;99.90
32107;DHT22;18622;51.998;10.440;2023-02-28T05:18:43;-0.20;99.90
32107;DHT22;18622;51.998;10.440;2023-02-28T05:21:32;-0.20;99.90
32107;DHT22;18622;51.998;10.440;2023-02-28T05:24:02;-0.20;99.90
32107;DHT22;18622;51.998;10.440;2023-02-28T05:26:33;-0.20;99.90
32107;DHT22;18622;51.998;10.440;2023-02-28T05:29:00;-0.20;99.90
32107;DHT22;18622;51.998;10.440;2023-02-28T05:31:28;-0.20;99.90
32107;DHT22;18622;51.998;10.440;2023-02-28T05:33:56;-0.10;99.90
32107;DHT22;18622;51.998;10.440;2023-02-28T05:36:24;-0.10;99.90
32107;DHT22;18622;51.998;10.440;2023-02-28T05:38:52;0.00;99.90
32107;DHT22;18622;51.998;10.440;2023-02-28T05:41:20;0.00;99.90
32107;DHT22;18622;51.998;10.440;2023-02-28T05:43:48;0.00;99.90
32107;DHT22;18622;51.998;10.440;2023-02-28T05:46:16;0.00;99.90
32107;DHT22;18622;51.998;10.440;2023-02-28T05:48:46;0.10;99.90
32107;DHT22;18622;51.998;10.440;2023-02-28T05:51:14;0.20;99.90
32107;DHT22;18622;51.998;10.440;2023-02-28T05:53:42;0.20;99.90
32107;DHT22;18622;51.998;10.440;2023-02-28T05:56:10;0.30;99.90
32107;DHT22;18622;51.998;10.440;2023-02-28T05:58:38;0.30;99.90
32107;DHT22;18622;51.998;10.440;2023-02-28T06:01:23;0.30;99.90
32107;DHT22;18622;51.998;10.440;2023-02-28T06:03:51;0.40;99.90
32107;DHT22;18622;51.998;10.440;2023-02-28T06:06:19;0.40;99.90
32107;DHT22;18622;51.998;10.440;2023-02-28T06:08:47;0.40;99.90
32107;DHT22;18622;51.998;10.440;2023-02-28T06:11:15;0.40;99.90
32107;DHT22;18622;51.998;10.440;2023-02-28T06:13:42;0.50;99.90
32107;DHT22;18622;51.998;10.440;2023-02-28T06:16:11;0.50;99.90
32107;DHT22;18622;51.998;10.440;2023-02-28T06:18:39;0.60;99.90
32107;DHT22;18622;51.998;10.440;2023-02-28T06:21:07;0.60;99.90
32107;DHT22;18622;51.998;10.440;2023-02-28T06:23:35;0.70;99.90
32107;DHT22;18622;51.998;10.440;2023-02-28T06:26:03;0.70;99.90
32107;DHT22;18622;51.998;10.440;2023-02-28T06:28:30;0.80;99.90
32107;DHT22;18622;51.998;10.440;2023-02-28T15:49:51;18.50;30.50
32107;DHT22;18622;51.998;10.440;2023-02-28T15:52:24;18.20;30.60
32107;DHT22;18622;51.998;10.440;2023-02-28T15:54:50;18.00;30.00
32107;DHT22;18622;51.998;10.440;2023-02-28T15:57:21;17.60;30.60
32107;DHT22;18622;51.998;10.440;2023-02-28T15:59:55;17.30;30.50
32107;DHT22;18622;51.998;10.440;2023-02-28T16:02:34;16.80;31.30
32107;DHT22;18622;51.998;10.440;2023-02-28T16:07:40;14.20;34.60
32107;DHT22;18622;51.998;10.440;2023-02-28T16:10:11;12.70;36.30
32107;DHT22;18622;51.998;10.440;2023-02-28T16:12:41;11.50;38.00
32107;DHT22;18622;51.998;10.440;2023-02-28T16:15:20;10.40;39.60
32107;DHT22;18622;51.998;10.440;2023-02-28T16:17:49;9.60;41.20
32107;DHT22;18622;51.998;10.440;2023-02-28T16:20:23;8.90;42.60
32107;DHT22;18622;51.998;10.440;2023-02-28T16:22:51;8.30;43.70
32107;DHT22;18622;51.998;10.440;2023-02-28T16:25:22;7.80;44.60
32107;DHT22;18622;51.998;10.440;2023-02-28T16:27:51;7.50;45.20
32107;DHT22;18622;51.998;10.440;2023-02-28T16:30:26;7.10;46.00
32107;DHT22;18622;51.998;10.440;2023-02-28T16:32:54;6.80;46.90
32107;DHT22;18622;51.998;10.440;2023-02-28T16:35:22;6.50;46.80
32107;DHT22;18622;51.998;10.440;2023-02-28T16:37:53;6.20;48.60
32107;DHT22;18622;51.998;10.440;2023-02-28T16:40:25;5.90;49.50
32107;DHT22;18622;51.998;10.440;2023-02-28T16:42:57;5.70;50.70
32107;DHT22;18622;51.998;10.440;2023-02-28T16:45:27;5.50;52.00
32107;DHT22;18622;51.998;10.440;2023-02-28T16:47:56;5.20;52.60
32107;DHT22;18622;51.998;10.440;2023-02-28T16:50:28;5.00;53.10
32107;DHT22;18622;51.998;10.440;2023-02-28T16:52:56;4.70;53.80
32107;DHT22;18622;51.998;10.440;2023-02-28T16:55:25;4.50;54.20
32107;DHT22;18622;51.998;10.440;2023-02-28T16:57:55;4.30;54.50
32107;DHT22;18622;51.998;10.440;2023-02-28T17:00:24;4.10;54.30
32107;DHT22;18622;51.998;10.440;2023-02-28T17:02:52;3.90;54.30
32107;DHT22;18622;51.998;10.440;2023-02-28T17:05:21;3.60;54.90
32107;DHT22;18622;51.998;10.440;2023-02-28T17:07:49;3.40;56.50
32107;DHT22;18622;51.998;10.440;2023-02-28T17:10:22;3.20;57.80
32107;DHT22;18622;51.998;10.440;2023-02-28T17:12:51;3.00;58.60
32107;DHT22;18622;51.998;10.440;2023-02-28T17:15:19;2.80;59.20
32107;DHT22;18622;51.998;10.440;2023-02-28T17:17:48;2.70;59.50
32107;DHT22;18622;51.998;10.440;2023-02-28T17:20:22;2.50;59.70
32107;DHT22;18622;51.998;10.440;2023-02-28T17:22:51;2.40;60.10
32107;DHT22;18622;51.998;10.440;2023-02-28T17:25:19;2.30;60.10
32107;DHT22;18622;51.998;10.440;2023-02-28T17:27:47;2.10;60.30
32107;DHT22;18622;51.998;10.440;2023-02-28T17:30:18;2.00;61.10
32107;DHT22;18622;51.998;10.440;2023-02-28T17:32:45;1.90;61.60
32107;DHT22;18622;51.998;10.440;2023-02-28T17:35:14;1.80;62.70
32107;DHT22;18622;51.998;10.440;2023-02-28T17:37:42;1.70;63.50
32107;DHT22;18622;51.998;10.440;2023-02-28T17:40:15;1.60;64.10
32107;DHT22;18622;51.998;10.440;2023-02-28T17:42:44;1.50;64.90
32107;DHT22;18622;51.998;10.440;2023-02-28T17:45:13;1.40;65.00
32107;DHT22;18622;51.998;10.440;2023-02-28T17:47:43;1.30;65.80
32107;DHT22;18622;51.998;10.440;2023-02-28T17:50:17;1.30;65.50
32107;DHT22;18622;51.998;10.440;2023-02-28T17:52:44;1.20;65.90
32107;DHT22;18622;51.998;10.440;2023-02-28T17:55:12;1.10;66.90
32107;DHT22;18622;51.998;10.440;2023-02-28T17:57:40;1.10;67.50
32107;DHT22;18622;51.998;10.440;2023-02-28T18:00:11;1.10;67.70
32107;DHT22;18622;51.998;10.440;2023-02-28T18:02:38;1.00;68.50
32107;DHT22;18622;51.998;10.440;2023-02-28T18:05:07;1.00;68.80
32107;DHT22;18622;51.998;10.440;2023-02-28T18:07:40;0.90;69.40
32107;DHT22;18622;51.998;10.440;2023-02-28T18:10:06;0.90;69.40
32107;DHT22;18622;51.998;10.440;2023-02-28T18:12:34;0.90;70.00
32107;DHT22;18622;51.998;10.440;2023-02-28T18:15:02;0.80;70.30
32107;DHT22;18622;51.998;10.440;2023-02-28T18:17:30;0.80;71.50
32107;DHT22;18622;51.998;10.440;2023-02-28T18:19:58;0.70;72.30
32107;DHT22;18622;51.998;10.440;2023-02-28T18:22:26;0.70;73.20
32107;DHT22;18622;51.998;10.440;2023-02-28T18:24:53;0.60;73.60
32107;DHT22;18622;51.998;10.440;2023-02-28T18:27:21;0.60;74.10
32107;DHT22;18622;51.998;10.440;2023-02-28T18:29:49;0.60;74.80
32107;DHT22;18622;51.998;10.440;2023-02-28T18:32:17;0.60;76.40
32107;DHT22;18622;51.998;10.440;2023-02-28T18:34:45;0.50;77.50
32107;DHT22;18622;51.998;10.440;2023-02-28T18:37:13;0.50;78.70
32107;DHT22;18622;51.998;10.440;2023-02-28T18:39:43;0.50;79.40
32107;DHT22;18622;51.998;10.440;2023-02-28T18:42:11;0.50;80.40
32107;DHT22;18622;51.998;10.440;2023-02-28T18:44:39;0.40;80.90
32107;DHT22;18622;51.998;10.440;2023-02-28T18:47:07;0.40;82.00
32107;DHT22;18622;51.998;10.440;2023-02-28T18:49:35;0.40;83.90
32107;DHT22;18622;51.998;10.440;2023-02-28T18:52:03;0.30;84.90
32107;DHT22;18622;51.998;10.440;2023-02-28T18:54:31;0.30;85.80
32107;DHT22;18622;51.998;10.440;2023-02-28T18:56:59;0.30;86.60
32107;DHT22;18622;51.998;10.440;2023-02-28T18:59:27;0.20;87.00
32107;DHT22;18622;51.998;10.440;2023-02-28T19:01:55;0.20;88.50
32107;DHT22;18622;51.998;10.440;2023-02-28T19:04:23;0.20;88.90
32107;DHT22;18622;51.998;10.440;2023-02-28T19:06:51;0.20;90.10
32107;DHT22;18622;51.998;10.440;2023-02-28T19:09:20;0.20;90.30
32107;DHT22;18622;51.998;10.440;2023-02-28T19:11:47;0.20;90.60
32107;DHT22;18622;51.998;10.440;2023-02-28T19:14:15;0.10;90.80
32107;DHT22;18622;51.998;10.440;2023-02-28T19:16:43;0.10;91.10
32107;DHT22;18622;51.998;10.440;2023-02-28T19:19:12;0.10;91.30
32107;DHT22;18622;51.998;10.440;2023-02-28T19:21:40;0.00;92.00
32107;DHT22;18622;51.998;10.440;2023-02-28T19:24:08;0.00;92.40
32107;DHT22;18622;51.998;10.440;2023-02-28T19:26:35;0.00;92.70
32107;DHT22;18622;51.998;10.440;2023-02-28T19:29:04;-0.10;93.00
32107;DHT22;18622;51.998;10.440;2023-02-28T19:31:32;-0.10;93.20
32107;DHT22;18622;51.998;10.440;2023-02-28T19:34:00;-0.10;93.50
32107;DHT22;18622;51.998;10.440;2023-02-28T19:36:28;-0.20;93.90
32107;DHT22;18622;51.998;10.440;2023-02-28T19:38:56;-0.20;94.30
32107;DHT22;18622;51.998;10.440;2023-02-28T19:41:23;-0.20;94.50
32107;DHT22;18622;51.998;10.440;2023-02-28T19:43:52;-0.20;94.90
32107;DHT22;18622;51.998;10.440;2023-02-28T19:46:20;-0.20;95.10
32107;DHT22;18622;51.998;10.440;2023-02-28T19:48:51;-0.20;95.50
32107;DHT22;18622;51.998;10.440;2023-02-28T19:51:17;-0.20;95.80
32107;DHT22;18622;51.998;10.440;2023-02-28T19:53:45;-0.20;95.80
32107;DHT22;18622;51.998;10.440;2023-02-28T19:56:13;-0.30;96.10
32107;DHT22;18622;51.998;10.440;2023-02-28T19:58:40;-0.30;96.20
32107;DHT22;18622;51.998;10.440;2023-02-28T20:01:18;-0.30;96.10
32107;DHT22;18622;51.998;10.440;2023-02-28T20:03:45;-0.40;96.20
32107;DHT22;18622;51.998;10.440;2023-02-28T20:06:12;-0.40;96.40
32107;DHT22;18622;51.998;10.440;2023-02-28T20:08:40;-0.50;96.30
32107;DHT22;18622;51.998;10.440;2023-02-28T20:11:11;-0.50;96.30
32107;DHT22;18622;51.998;10.440;2023-02-28T20:13:40;-0.50;96.50
32107;DHT22;18622;51.998;10.440;2023-02-28T20:16:09;-0.50;96.50
32107;DHT22;18622;51.998;10.440;2023-02-28T20:18:38;-0.60;96.80
32107;DHT22;18622;51.998;10.440;2023-02-28T20:21:09;-0.60;97.30
32107;DHT22;18622;51.998;10.440;2023-02-28T20:23:38;-0.60;97.50
32107;DHT22;18622;51.998;10.440;2023-02-28T20:26:06;-0.60;97.50
32107;DHT22;18622;51.998;10.440;2023-02-28T20:28:34;-0.60;97.30
32107;DHT22;18622;51.998;10.440;2023-02-28T20:31:08;-0.70;97.10
32107;DHT22;18622;51.998;10.440;2023-02-28T20:33:31;-0.70;97.20
32107;DHT22;18622;51.998;10.440;2023-02-28T20:36:00;-0.70;97.80
32107;DHT22;18622;51.998;10.440;2023-02-28T20:38:28;-0.80;98.00
32107;DHT22;18622;51.998;10.440;2023-02-28T20:40:58;-0.80;98.10
32107;DHT22;18622;51.998;10.440;2023-02-28T20:43:26;-0.80;97.70
32107;DHT22;18622;51.998;10.440;2023-02-28T20:45:55;-0.90;97.60
32107;DHT22;18622;51.998;10.440;2023-02-28T20:48:24;-0.90;97.80
32107;DHT22;18622;51.998;10.440;2023-02-28T20:50:53;-0.90;98.00
32107;DHT22;18622;51.998;10.440;2023-02-28T20:53:22;-1.00;98.20
32107;DHT22;18622;51.998;10.440;2023-02-28T20:55:57;-1.00;98.60
32107;DHT22;18622;51.998;10.440;2023-02-28T20:58:28;-1.00;98.60
32107;DHT22;18622;51.998;10.440;2023-02-28T21:01:00;-1.00;98.50
32107;DHT22;18622;51.998;10.440;2023-02-28T21:03:28;-1.10;98.80
32107;DHT22;18622;51.998;10.440;2023-02-28T21:06:00;-1.00;98.80
32107;DHT22;18622;51.998;10.440;2023-02-28T21:08:28;-1.10;98.60
32107;DHT22;18622;51.998;10.440;2023-02-28T21:10:56;-1.10;99.00
32107;DHT22;18622;51.998;10.440;2023-02-28T21:13:24;-1.10;98.90
32107;DHT22;18622;51.998;10.440;2023-02-28T21:15:52;-1.10;99.00
32107;DHT22;18622;51.998;10.440;2023-02-28T21:18:20;-1.10;99.00
32107;DHT22;18622;51.998;10.440;2023-02-28T21:20:48;-1.10;99.30
32107;DHT22;18622;51.998;10.440;2023-02-28T21:23:16;-1.20;99.30
32107;DHT22;18622;51.998;10.440;2023-02-28T21:25:44;-1.20;99.40
32107;DHT22;18622;51.998;10.440;2023-02-28T21:28:11;-1.20;99.40
32107;DHT22;18622;51.998;10.440;2023-02-28T21:30:39;-1.20;99.10
32107;DHT22;18622;51.998;10.440;2023-02-28T21:33:07;-1.20;99.20
32107;DHT22;18622;51.998;10.440;2023-02-28T21:35:35;-1.30;99.40
32107;DHT22;18622;51.998;10.440;2023-02-28T21:38:03;-1.30;99.50
32107;DHT22;18622;51.998;10.440;2023-02-28T21:40:32;-1.30;99.40
32107;DHT22;18622;51.998;10.440;2023-02-28T21:42:59;-1.30;99.40
